Terminal Aerodrome Forecast
Issued by NWS Portland, ME

Home | Current Version | Previous Version | Text Only | Print | Product List | Glossary On
Versions: 1 2 3 4 5 6 7 8 9 10 11 12 13 14 15 16 17 18 19 20
000
FTUS41 KGYX 072021 AAA
TAFCON
TAF AMD
KCON 072021Z 0720/0818 16008KT P6SM SCT025 BKN050 BKN090
      TEMPO 0720/0724 2SM SHRA BKN025 BKN060
     FM080300 18005KT 4SM BR SCT050 BKN100
     FM081200 27005KT 5SM HZ BKN050
     FM081500 30008KT P6SM BKN100=

USA.gov is the U.S. government's official web portal to all federal, state and local government web resources and services.